| time (UTC) | temp F | wind direction | speed knots | gust knots | rain 1hr in | rain 24hr in | rain mn in | humidity % | barometer mb |
| 20260505193057 | 74 | 336 | 0.0 | 0.9 | 0.00 | 0.00 | 0.00 | 1012.5 | |
| 20260505192024 | 74 | 85 | 0.0 | 0.9 | 0.00 | 0.00 | 0.00 | 1012.5 | |
| 20260505190921 | 74 | 76 | 0.0 | 0.0 | 0.00 | 0.00 | 0.00 | 1012.9 | |
| 20260505185920 | 74 | 56 | 0.0 | 0.0 | 0.00 | 0.00 | 0.00 | 1012.9 | |
| 20260505184920 | 73 | 282 | 0.0 | 2.6 | 0.00 | 0.00 | 0.00 | 1013.2 | |
| 20260505183919 | 73 | 51 | 0.0 | 1.7 | 0.00 | 0.00 | 0.00 | 1013.2 | |
| 20260505182847 | 73 | 51 | 0.0 | 2.6 | 0.00 | 0.00 | 0.00 | 1013.2 | |
| 20260505181744 | 73 | 4 | 1.7 | 5.2 | 0.00 | 0.00 | 0.00 | 1013.2 | |
| 20260505180712 | 73 | 28 | 0.0 | 0.0 | 0.00 | 0.00 | 0.00 | 1013.2 | |
| 20260505175711 | 72 | 82 | 0.0 | 0.9 | 0.00 | 0.00 | 0.00 | 1013.2 | |
| 20260505174710 | 71 | 8 | 0.0 | 0.9 | 0.00 | 0.00 | 0.00 | 1013.2 | |
| 20260505173709 | 71 | 11 | 0.0 | 2.6 | 0.00 | 0.00 | 0.00 | 1013.9 | |
| 20260505172708 | 70 | 100 | 0.0 | 1.7 | 0.00 | 0.00 | 0.00 | 1014.2 | |
| 20260505171707 | 70 | 106 | 0.0 | 1.7 | 0.00 | 0.00 | 0.00 | 1014.2 | |
| 20260505170635 | 70 | 89 | 0.0 | 0.9 | 0.00 | 0.00 | 0.00 | 1014.2 | |
| 20260505165532 | 70 | 61 | 0.0 | 0.9 | 0.00 | 0.00 | 0.00 | 1014.2 | |
| 20260505164531 | 70 | 131 | 0.0 | 0.9 | 0.00 | 0.00 | 0.00 | 1014.2 | |
| 20260505163531 | 69 | 96 | 1.7 | 2.6 | 0.00 | 0.00 | 0.00 | 1013.9 | |
| 20260505162530 | 69 | 109 | 0.9 | 1.7 | 0.00 | 0.00 | 0.00 | 1014.2 | |
| 20260505161529 | 69 | 95 | 0.0 | 0.9 | 0.00 | 0.00 | 0.00 | 1014.2 | |
| 20260505160528 | 68 | 116 | 0.9 | 2.6 | 0.00 | 0.00 | 0.00 | 1013.9 | |
| 20260505152422 | 64 | 138 | 0.0 | 0.0 | 0.00 | 0.00 | 0.00 | 1014.9 | |
| 20260505151421 | 64 | 138 | 0.0 | 0.0 | 0.00 | 0.00 | 0.00 | 1014.9 | |
| 20260505150421 | 63 | 138 | 0.0 | 0.0 | 0.00 | 0.00 | 0.00 | 1014.9 | |
| 20260505140243 | 59 | 64 | 0.0 | 0.0 | 0.00 | 0.00 | 0.00 | 1014.9 | |
| 20260505130206 | 53 | 41 | 0.0 | 0.0 | 0.00 | 0.00 | 0.00 | 1015.2 | |
| 20260505124031 | 51 | 41 | 0.0 | 0.0 | 0.00 | 0.00 | 0.00 | 1015.2 | |
| 20260505123031 | 49 | 41 | 0.0 | 0.0 | 0.00 | 0.00 | 0.00 | 1015.2 | |
| 20260505122030 | 48 | 41 | 0.0 | 0.0 | 0.00 | 0.00 | 0.00 | 1015.6 | |
| 20260505120958 | 47 | 41 | 0.0 | 0.0 | 0.00 | 0.00 | 0.00 | 1015.2 | |
| 20260505115957 | 47 | 41 | 0.0 | 0.0 | 0.00 | 0.00 | 0.00 | 1015.2 | |
| 20260505114925 | 46 | 41 | 0.0 | 0.0 | 0.00 | 0.00 | 0.00 | 1015.2 | |
| 20260505113751 | 46 | 41 | 0.0 | 0.0 | 0.00 | 0.00 | 0.00 | 1014.9 | |
| 20260505112751 | 46 | 41 | 0.0 | 0.0 | 0.00 | 0.00 | 0.00 | 1014.9 | |
| 20260505111647 | 46 | 41 | 0.0 | 0.0 | 0.00 | 0.00 | 0.00 | 1014.9 | |
| 20260505110646 | 46 | 41 | 0.0 | 0.0 | 0.00 | 0.00 | 0.00 | 1014.6 | |
| 20260505101611 | 46 | 41 | 0.0 | 0.0 | 0.00 | 0.00 | 0.00 | 1014.6 | |
| 20260505100610 | 46 | 41 | 0.0 | 0.0 | 0.00 | 0.00 | 0.00 | 1014.2 | |
| 20260505095609 | 46 | 41 | 0.0 | 0.0 | 0.00 | 0.00 | 0.00 | 1014.2 | |
| 20260505094608 | 46 | 41 | 0.0 | 0.0 | 0.00 | 0.00 | 0.00 | 1014.2 | |
| 20260505093608 | 46 | 41 | 0.0 | 0.0 | 0.00 | 0.00 | 0.00 | 1014.2 | |
| 20260505092607 | 47 | 41 | 0.0 | 0.0 | 0.00 | 0.00 | 0.00 | 1014.2 | |
| 20260505091606 | 47 | 41 | 0.0 | 0.0 | 0.00 | 0.00 | 0.00 | 1014.2 | |
| 20260505090606 | 47 | 41 | 0.0 | 0.0 | 0.00 | 0.00 | 0.00 | 1014.2 | |
| 20260505085604 | 47 | 41 | 0.0 | 0.0 | 0.00 | 0.00 | 0.00 | 1014.2 | |
| 20260505084501 | 47 | 41 | 0.0 | 0.0 | 0.00 | 0.00 | 0.00 | 1014.2 | |
| 20260505083500 | 48 | 41 | 0.0 | 0.0 | 0.00 | 0.00 | 0.00 | 1013.9 | |
| 20260505082459 | 48 | 41 | 0.0 | 0.0 | 0.00 | 0.00 | 0.00 | 1013.9 | |
| 20260505081458 | 48 | 41 | 0.0 | 0.0 | 0.00 | 0.00 | 0.00 | 1013.9 | |
| 20260505080457 | 48 | 41 | 0.0 | 0.0 | 0.00 | 0.00 | 0.00 | 1013.5 | |
| 20260505075425 | 49 | 41 | 0.0 | 0.0 | 0.00 | 0.00 | 0.00 | 1013.5 | |
| 20260505074425 | 49 | 41 | 0.0 | 0.0 | 0.00 | 0.00 | 0.00 | 1013.5 | |
| 20260505073353 | 49 | 41 | 0.0 | 0.0 | 0.00 | 0.00 | 0.00 | 1013.5 | |
| 20260505072352 | 49 | 41 | 0.0 | 0.0 | 0.00 | 0.00 | 0.00 | 1013.2 | |
| 20260505071351 | 50 | 41 | 0.0 | 0.0 | 0.00 | 0.00 | 0.00 | 1013.2 | |
| 20260505070350 | 50 | 41 | 0.0 | 0.0 | 0.00 | 0.00 | 0.00 | 1013.5 | |
| 20260505065349 | 50 | 41 | 0.0 | 0.0 | 0.00 | 0.00 | 0.00 | 1013.5 | |
| 20260505064348 | 50 | 41 | 0.0 | 0.0 | 0.00 | 0.00 | 0.00 | 1013.5 | |
| 20260505063315 | 50 | 41 | 0.0 | 0.0 | 0.00 | 0.00 | 0.00 | 1013.5 | |
| 20260505062315 | 51 | 41 | 0.0 | 0.0 | 0.00 | 0.00 | 0.00 | 1013.5 | |
| 20260505061314 | 51 | 41 | 0.0 | 0.0 | 0.00 | 0.00 | 0.00 | 1013.9 | |
| 20260505060313 | 51 | 41 | 0.0 | 0.0 | 0.00 | 0.00 | 0.00 | 1013.9 | |
| 20260505055312 | 52 | 41 | 0.0 | 0.0 | 0.00 | 0.00 | 0.00 | 1013.9 | |
| 20260505054311 | 52 | 41 | 0.0 | 0.0 | 0.00 | 0.00 | 0.00 | 1013.9 | |
| 20260505053310 | 52 | 41 | 0.0 | 0.0 | 0.00 | 0.00 | 0.00 | 1013.9 | |
| 20260505052309 | 52 | 41 | 0.0 | 0.0 | 0.00 | 0.00 | 0.00 | 1013.9 | |
| 20260505051308 | 52 | 41 | 0.0 | 0.0 | 0.00 | 0.00 | 0.00 | 1014.2 | |
| 20260505050307 | 53 | 41 | 0.0 | 0.0 | 0.00 | 0.00 | 0.00 | 1014.2 | |
| 20260505041128 | 54 | 41 | 0.0 | 0.0 | 0.00 | 0.00 | 0.00 | 1014.2 | |
| 20260505040127 | 55 | 41 | 0.0 | 0.0 | 0.00 | 0.00 | 0.00 | 1014.2 | |
| 20260505035126 | 56 | 41 | 0.0 | 0.0 | 0.00 | 0.00 | 0.00 | 1013.9 | |
| 20260505034126 | 57 | 41 | 0.0 | 0.0 | 0.00 | 0.00 | 0.00 | 1014.2 | |
| 20260505033125 | 58 | 72 | 0.0 | 0.0 | 0.00 | 0.00 | 0.00 | 1014.2 | |
| 20260505032123 | 58 | 72 | 0.0 | 0.0 | 0.00 | 0.00 | 0.00 | 1014.2 | |
| 20260505031051 | 58 | 72 | 0.0 | 0.0 | 0.00 | 0.00 | 0.00 | 1014.9 | |
| 20260505030051 | 59 | 72 | 0.0 | 0.0 | 0.00 | 0.00 | 0.00 | 1014.9 | |
| 20260505025050 | 59 | 72 | 0.0 | 0.0 | 0.00 | 0.00 | 0.00 | 1014.9 | |
| 20260505024049 | 59 | 72 | 0.0 | 0.0 | 0.00 | 0.00 | 0.00 | 1014.6 | |
| 20260505023048 | 60 | 72 | 0.0 | 0.0 | 0.00 | 0.00 | 0.00 | 1014.6 | |
| 20260505022016 | 61 | 72 | 0.0 | 0.0 | 0.00 | 0.00 | 0.00 | 1014.2 | |
| 20260505021015 | 61 | 72 | 0.0 | 0.0 | 0.00 | 0.00 | 0.00 | 1014.6 | |
| 20260505015943 | 61 | 72 | 0.0 | 0.0 | 0.00 | 0.00 | 0.00 | 1014.6 | |
| 20260505014942 | 62 | 72 | 0.0 | 0.0 | 0.00 | 0.00 | 0.00 | 1014.6 | |
| 20260505013910 | 62 | 72 | 0.0 | 0.0 | 0.00 | 0.00 | 0.00 | 1014.2 | |
| 20260505012908 | 63 | 72 | 0.0 | 0.0 | 0.00 | 0.00 | 0.00 | 1013.9 | |
| 20260505011836 | 63 | 72 | 0.0 | 0.0 | 0.00 | 0.00 | 0.00 | 1013.9 | |
| 20260505010836 | 63 | 72 | 0.0 | 0.0 | 0.00 | 0.00 | 0.00 | 1014.6 | |
| 20260505005835 | 64 | 72 | 0.0 | 0.0 | 0.00 | 0.00 | 0.00 | 1013.9 | |
| 20260505004731 | 64 | 72 | 0.0 | 0.0 | 0.00 | 0.00 | 0.00 | 1013.9 | |
| 20260505003659 | 65 | 72 | 0.0 | 0.0 | 0.00 | 0.00 | 0.00 | 1013.9 | |
| 20260505002658 | 66 | 48 | 0.0 | 0.0 | 0.00 | 0.00 | 0.00 | 1013.5 | |
| 20260505001657 | 66 | 48 | 0.0 | 0.0 | 0.00 | 0.00 | 0.00 | 1013.5 | |
| 20260505000625 | 66 | 10 | 0.0 | 0.0 | 0.00 | 0.00 | 0.00 | 1014.2 | |
| 20260504235624 | 67 | 13 | 0.0 | 0.0 | 0.00 | 0.00 | 0.00 | 1013.9 | |
| 20260504234623 | 67 | 13 | 0.0 | 0.0 | 0.00 | 0.00 | 0.00 | 1013.9 | |
| 20260504233622 | 68 | 353 | 0.0 | 0.0 | 0.00 | 0.00 | 0.00 | 1013.5 | |
| 20260504232621 | 68 | 353 | 0.0 | 0.0 | 0.00 | 0.00 | 0.00 | 1013.5 | |
| 20260504231621 | 69 | 353 | 0.0 | 0.0 | 0.00 | 0.00 | 0.00 | 1013.5 | |
| 20260504230620 | 69 | 37 | 0.0 | 0.0 | 0.00 | 0.00 | 0.00 | 1013.2 | |
| 20260504225619 | 70 | 54 | 0.0 | 0.0 | 0.00 | 0.00 | 0.00 | 1013.5 | |
| 20260504224617 | 70 | 0 | 0.0 | 0.0 | 0.00 | 0.00 | 0.00 | 1013.5 | |
| 20260504223545 | 71 | 100 | 0.0 | 0.0 | 0.00 | 0.00 | 0.00 | 1013.2 | |
| 20260504222544 | 71 | 41 | 0.0 | 0.0 | 0.00 | 0.00 | 0.00 | 1013.2 | |
| 20260504221544 | 71 | 69 | 0.0 | 0.0 | 0.00 | 0.00 | 0.00 | 1013.2 | |
| 20260504220511 | 72 | 85 | 0.0 | 0.0 | 0.00 | 0.00 | 0.00 | 1012.9 | |
| 20260504215510 | 72 | 78 | 0.0 | 0.0 | 0.00 | 0.00 | 0.00 | 1012.9 | |
| 20260504214509 | 73 | 14 | 0.0 | 0.0 | 0.00 | 0.00 | 0.00 | 1012.9 | |
| 20260504213508 | 73 | 71 | 0.0 | 0.0 | 0.00 | 0.00 | 0.00 | 1012.9 | |
| 20260504212508 | 73 | 71 | 0.0 | 0.0 | 0.00 | 0.00 | 0.00 | 1012.5 | |
| 20260504211507 | 74 | 120 | 0.0 | 0.0 | 0.00 | 0.00 | 0.00 | 1012.5 | |
| 20260504210506 | 74 | 62 | 0.0 | 0.0 | 0.00 | 0.00 | 0.00 | 1012.5 | |
| 20260504205434 | 74 | 58 | 0.0 | 0.0 | 0.00 | 0.00 | 0.00 | 1012.5 | |
| 20260504204433 | 74 | 134 | 0.0 | 0.0 | 0.00 | 0.00 | 0.00 | 1012.5 | |
| 20260504203432 | 75 | 134 | 0.0 | 1.7 | 0.00 | 0.00 | 0.00 | 1012.5 | |
| 20260504202431 | 75 | 120 | 0.0 | 1.7 | 0.00 | 0.00 | 0.00 | 1012.5 | |
| 20260504201430 | 76 | 131 | 0.0 | 1.7 | 0.00 | 0.00 | 0.00 | 1012.5 | |
| 20260504200429 | 76 | 104 | 0.0 | 0.0 | 0.00 | 0.00 | 0.00 | 1012.5 | |
| 20260504195428 | 76 | 104 | 0.0 | 5.2 | 0.00 | 0.00 | 0.00 | 1012.9 | |
| 20260504194427 | 75 | 339 | 0.9 | 7.0 | 0.00 | 0.00 | 0.00 | 1012.9 |